sensor_id;sensor_type;location;lat;lon;timestamp;pressure;altitude;pressure_sealevel;temperature;humidity
13058;BME280;6595;49.578;11.012;2023-06-22T00:00:24;990.905;;;18.79;83.6
13058;BME280;6595;49.578;11.012;2023-06-22T00:02:23;990.804;;;18.75;83.8
13058;BME280;6595;49.578;11.012;2023-06-22T00:04:23;990.742;;;18.76;83.8
13058;BME280;6595;49.578;11.012;2023-06-22T00:06:24;990.900;;;18.85;83.5
13058;BME280;6595;49.578;11.012;2023-06-22T00:08:23;990.763;;;18.79;83.5
13058;BME280;6595;49.578;11.012;2023-06-22T00:10:23;990.756;;;18.71;83.8
13058;BME280;6595;49.578;11.012;2023-06-22T00:12:24;990.796;;;18.64;83.8
13058;BME280;6595;49.578;11.012;2023-06-22T00:14:23;990.836;;;18.62;83.8
13058;BME280;6595;49.578;11.012;2023-06-22T00:16:23;990.869;;;18.64;83.7
13058;BME280;6595;49.578;11.012;2023-06-22T00:18:24;990.785;;;18.56;83.9
13058;BME280;6595;49.578;11.012;2023-06-22T00:20:23;990.748;;;18.56;84.3
13058;BME280;6595;49.578;11.012;2023-06-22T00:22:24;990.748;;;18.52;84.4
13058;BME280;6595;49.578;11.012;2023-06-22T00:24:24;990.787;;;18.47;84.7
13058;BME280;6595;49.578;11.012;2023-06-22T00:26:23;990.736;;;18.44;84.4
13058;BME280;6595;49.578;11.012;2023-06-22T00:28:23;990.802;;;18.44;84.5
13058;BME280;6595;49.578;11.012;2023-06-22T00:30:23;990.817;;;18.44;84.4
13058;BME280;6595;49.578;11.012;2023-06-22T00:32:23;990.834;;;18.43;84.5
13058;BME280;6595;49.578;11.012;2023-06-22T00:34:23;990.942;;;18.45;84.3
13058;BME280;6595;49.578;11.012;2023-06-22T00:36:24;990.931;;;18.45;84.3
13058;BME280;6595;49.578;11.012;2023-06-22T00:38:23;991.040;;;18.43;84.3
13058;BME280;6595;49.578;11.012;2023-06-22T00:40:23;991.056;;;18.45;84.5
13058;BME280;6595;49.578;11.012;2023-06-22T00:42:24;991.052;;;18.50;84.3
13058;BME280;6595;49.578;11.012;2023-06-22T00:44:23;991.107;;;18.45;84.4
13058;BME280;6595;49.578;11.012;2023-06-22T00:46:24;991.177;;;18.48;84.5
13058;BME280;6595;49.578;11.012;2023-06-22T00:48:24;991.141;;;18.48;84.3
13058;BME280;6595;49.578;11.012;2023-06-22T00:50:26;991.244;;;18.47;84.1
13058;BME280;6595;49.578;11.012;2023-06-22T00:52:24;991.285;;;18.51;84.2
13058;BME280;6595;49.578;11.012;2023-06-22T00:54:24;991.238;;;18.50;84.2
13058;BME280;6595;49.578;11.012;2023-06-22T00:56:24;991.295;;;18.54;84.2
13058;BME280;6595;49.578;11.012;2023-06-22T00:58:24;991.322;;;18.55;84.1
13058;BME280;6595;49.578;11.012;2023-06-22T01:00:24;991.312;;;18.52;84.0
13058;BME280;6595;49.578;11.012;2023-06-22T01:02:23;991.322;;;18.54;84.1
13058;BME280;6595;49.578;11.012;2023-06-22T01:04:24;991.118;;;18.48;84.5
13058;BME280;6595;49.578;11.012;2023-06-22T01:06:30;991.192;;;18.48;84.6
13058;BME280;6595;49.578;11.012;2023-06-22T01:08:31;991.121;;;18.41;84.9
13058;BME280;6595;49.578;11.012;2023-06-22T01:10:27;991.080;;;18.45;84.8
13058;BME280;6595;49.578;11.012;2023-06-22T01:12:25;991.013;;;18.47;84.9
13058;BME280;6595;49.578;11.012;2023-06-22T01:14:27;990.807;;;18.44;85.0
13058;BME280;6595;49.578;11.012;2023-06-22T01:16:25;990.709;;;18.47;84.8
13058;BME280;6595;49.578;11.012;2023-06-22T01:18:26;990.635;;;18.48;84.8
13058;BME280;6595;49.578;11.012;2023-06-22T01:20:24;990.464;;;18.50;84.6
13058;BME280;6595;49.578;11.012;2023-06-22T01:22:27;990.451;;;18.50;84.6
13058;BME280;6595;49.578;11.012;2023-06-22T01:24:30;990.400;;;18.51;84.6
13058;BME280;6595;49.578;11.012;2023-06-22T01:26:30;990.264;;;18.48;84.5
13058;BME280;6595;49.578;11.012;2023-06-22T01:28:36;990.172;;;18.55;84.3
13058;BME280;6595;49.578;11.012;2023-06-22T01:30:24;990.172;;;18.55;84.3
13058;BME280;6595;49.578;11.012;2023-06-22T01:32:23;990.119;;;18.56;84.1
13058;BME280;6595;49.578;11.012;2023-06-22T01:34:25;990.211;;;18.58;84.0
13058;BME280;6595;49.578;11.012;2023-06-22T01:36:24;990.184;;;18.51;84.0
13058;BME280;6595;49.578;11.012;2023-06-22T01:38:24;990.170;;;18.54;84.0
13058;BME280;6595;49.578;11.012;2023-06-22T01:40:24;990.115;;;18.51;84.0
13058;BME280;6595;49.578;11.012;2023-06-22T01:42:23;990.152;;;18.48;84.0
13058;BME280;6595;49.578;11.012;2023-06-22T01:44:25;990.178;;;18.48;84.1
13058;BME280;6595;49.578;11.012;2023-06-22T01:46:24;990.322;;;18.45;83.9
13058;BME280;6595;49.578;11.012;2023-06-22T01:48:24;990.323;;;18.45;83.9
13058;BME280;6595;49.578;11.012;2023-06-22T01:50:24;990.423;;;18.43;83.8
13058;BME280;6595;49.578;11.012;2023-06-22T01:52:24;990.398;;;18.44;83.8
13058;BME280;6595;49.578;11.012;2023-06-22T01:54:24;990.410;;;18.35;83.9
13058;BME280;6595;49.578;11.012;2023-06-22T01:56:23;990.461;;;18.31;84.1
13058;BME280;6595;49.578;11.012;2023-06-22T01:58:26;990.461;;;18.31;84.1
13058;BME280;6595;49.578;11.012;2023-06-22T02:00:25;990.446;;;18.24;84.5
13058;BME280;6595;49.578;11.012;2023-06-22T02:02:24;990.486;;;18.20;84.8
13058;BME280;6595;49.578;11.012;2023-06-22T02:04:26;990.505;;;18.20;84.7
13058;BME280;6595;49.578;11.012;2023-06-22T02:06:27;990.477;;;18.10;85.0
13058;BME280;6595;49.578;11.012;2023-06-22T02:08:35;990.591;;;18.07;85.2
13058;BME280;6595;49.578;11.012;2023-06-22T02:10:24;990.591;;;18.07;85.2
13058;BME280;6595;49.578;11.012;2023-06-22T02:12:25;990.778;;;18.03;85.4
13058;BME280;6595;49.578;11.012;2023-06-22T02:14:24;990.727;;;18.00;85.4
13058;BME280;6595;49.578;11.012;2023-06-22T02:16:23;990.718;;;17.97;85.5
13058;BME280;6595;49.578;11.012;2023-06-22T02:18:24;990.721;;;17.99;85.5
13058;BME280;6595;49.578;11.012;2023-06-22T02:20:24;990.571;;;18.00;85.6
13058;BME280;6595;49.578;11.012;2023-06-22T02:22:24;990.560;;;17.97;85.7
13058;BME280;6595;49.578;11.012;2023-06-22T02:24:23;990.558;;;17.93;85.8
13058;BME280;6595;49.578;11.012;2023-06-22T02:26:23;990.556;;;17.93;85.9
13058;BME280;6595;49.578;11.012;2023-06-22T02:28:24;990.538;;;17.90;86.0
13058;BME280;6595;49.578;11.012;2023-06-22T02:30:23;990.499;;;17.87;86.3
13058;BME280;6595;49.578;11.012;2023-06-22T02:32:24;990.457;;;17.84;86.6
13058;BME280;6595;49.578;11.012;2023-06-22T02:34:24;990.546;;;17.89;86.2
13058;BME280;6595;49.578;11.012;2023-06-22T02:36:23;990.688;;;17.89;85.9
13058;BME280;6595;49.578;11.012;2023-06-22T02:38:24;990.807;;;17.89;85.9
13058;BME280;6595;49.578;11.012;2023-06-22T02:40:23;990.952;;;17.90;86.1
13058;BME280;6595;49.578;11.012;2023-06-22T02:42:24;991.173;;;17.90;85.9
13058;BME280;6595;49.578;11.012;2023-06-22T02:44:23;991.594;;;17.93;85.8
13058;BME280;6595;49.578;11.012;2023-06-22T02:46:23;991.936;;;17.96;86.2
13058;BME280;6595;49.578;11.012;2023-06-22T02:48:24;992.242;;;18.10;86.2
13058;BME280;6595;49.578;11.012;2023-06-22T02:50:24;992.402;;;18.15;86.2
13058;BME280;6595;49.578;11.012;2023-06-22T02:52:23;992.343;;;18.20;86.2
13058;BME280;6595;49.578;11.012;2023-06-22T02:54:24;992.199;;;18.24;86.0
13058;BME280;6595;49.578;11.012;2023-06-22T02:56:23;992.243;;;18.31;85.8
13058;BME280;6595;49.578;11.012;2023-06-22T02:58:24;992.175;;;18.33;86.2
13058;BME280;6595;49.578;11.012;2023-06-22T03:00:23;992.016;;;18.33;85.9
13058;BME280;6595;49.578;11.012;2023-06-22T03:02:23;992.029;;;18.34;85.9
13058;BME280;6595;49.578;11.012;2023-06-22T03:04:23;991.995;;;18.33;86.0
13058;BME280;6595;49.578;11.012;2023-06-22T03:06:23;991.995;;;18.33;86.0
13058;BME280;6595;49.578;11.012;2023-06-22T03:08:24;992.011;;;18.30;86.0
13058;BME280;6595;49.578;11.012;2023-06-22T03:10:23;991.928;;;18.30;85.7
13058;BME280;6595;49.578;11.012;2023-06-22T03:12:23;991.905;;;18.35;85.8
13058;BME280;6595;49.578;11.012;2023-06-22T03:14:24;991.860;;;18.34;85.7
13058;BME280;6595;49.578;11.012;2023-06-22T03:16:23;991.819;;;18.31;85.8
13058;BME280;6595;49.578;11.012;2023-06-22T03:18:24;991.759;;;18.28;85.9
13058;BME280;6595;49.578;11.012;2023-06-22T03:20:24;991.710;;;18.27;85.8
13058;BME280;6595;49.578;11.012;2023-06-22T03:22:23;991.706;;;18.25;85.9
13058;BME280;6595;49.578;11.012;2023-06-22T03:24:24;991.586;;;18.30;85.9
13058;BME280;6595;49.578;11.012;2023-06-22T03:26:23;991.569;;;18.30;85.9
13058;BME280;6595;49.578;11.012;2023-06-22T03:28:24;991.580;;;18.35;85.7
13058;BME280;6595;49.578;11.012;2023-06-22T03:30:24;991.534;;;18.35;85.6
13058;BME280;6595;49.578;11.012;2023-06-22T03:32:23;991.594;;;18.35;85.7
13058;BME280;6595;49.578;11.012;2023-06-22T03:34:24;991.494;;;18.34;86.0
13058;BME280;6595;49.578;11.012;2023-06-22T03:36:24;991.326;;;18.40;85.7
13058;BME280;6595;49.578;11.012;2023-06-22T03:38:23;991.352;;;18.38;85.7
13058;BME280;6595;49.578;11.012;2023-06-22T03:40:24;991.364;;;18.41;85.7
13058;BME280;6595;49.578;11.012;2023-06-22T03:42:23;991.258;;;18.43;85.7
13058;BME280;6595;49.578;11.012;2023-06-22T03:44:23;991.119;;;18.47;85.6
13058;BME280;6595;49.578;11.012;2023-06-22T03:46:24;991.158;;;18.48;85.4
13058;BME280;6595;49.578;11.012;2023-06-22T03:48:23;991.189;;;18.51;85.4
13058;BME280;6595;49.578;11.012;2023-06-22T03:50:23;991.185;;;18.47;85.2
13058;BME280;6595;49.578;11.012;2023-06-22T03:52:24;990.946;;;18.55;85.2
13058;BME280;6595;49.578;11.012;2023-06-22T03:54:23;990.992;;;18.62;84.8
13058;BME280;6595;49.578;11.012;2023-06-22T03:56:24;991.012;;;18.58;84.8
13058;BME280;6595;49.578;11.012;2023-06-22T03:58:24;991.012;;;18.58;84.8
13058;BME280;6595;49.578;11.012;2023-06-22T04:00:23;990.852;;;18.61;84.6
13058;BME280;6595;49.578;11.012;2023-06-22T04:02:24;990.916;;;18.64;84.7
13058;BME280;6595;49.578;11.012;2023-06-22T04:04:24;990.882;;;18.64;84.7
13058;BME280;6595;49.578;11.012;2023-06-22T04:06:23;990.847;;;18.68;84.2
13058;BME280;6595;49.578;11.012;2023-06-22T04:08:23;990.722;;;18.72;84.2
13058;BME280;6595;49.578;11.012;2023-06-22T04:10:24;990.538;;;18.80;84.1
13058;BME280;6595;49.578;11.012;2023-06-22T04:12:23;990.492;;;18.82;84.1
13058;BME280;6595;49.578;11.012;2023-06-22T04:14:23;990.614;;;18.98;83.6
13058;BME280;6595;49.578;11.012;2023-06-22T04:16:24;990.593;;;18.99;83.4
13058;BME280;6595;49.578;11.012;2023-06-22T04:18:23;990.593;;;18.99;83.4
13058;BME280;6595;49.578;11.012;2023-06-22T04:20:24;990.614;;;19.06;83.1
13058;BME280;6595;49.578;11.012;2023-06-22T04:22:23;990.478;;;19.02;83.1
13058;BME280;6595;49.578;11.012;2023-06-22T04:24:23;990.429;;;19.08;83.0
13058;BME280;6595;49.578;11.012;2023-06-22T04:26:24;990.376;;;19.09;83.0
13058;BME280;6595;49.578;11.012;2023-06-22T04:28:23;990.329;;;19.12;82.9
13058;BME280;6595;49.578;11.012;2023-06-22T04:30:24;990.329;;;19.12;82.9
13058;BME280;6595;49.578;11.012;2023-06-22T04:32:23;990.326;;;19.20;82.6
13058;BME280;6595;49.578;11.012;2023-06-22T04:34:23;990.410;;;19.26;82.3
13058;BME280;6595;49.578;11.012;2023-06-22T04:36:24;990.335;;;19.29;82.3
13058;BME280;6595;49.578;11.012;2023-06-22T04:38:24;990.282;;;19.32;82.0
13058;BME280;6595;49.578;11.012;2023-06-22T04:40:23;990.260;;;19.36;81.6
13058;BME280;6595;49.578;11.012;2023-06-22T04:42:25;990.223;;;19.42;81.4
13058;BME280;6595;49.578;11.012;2023-06-22T04:44:23;990.251;;;19.43;81.2
13058;BME280;6595;49.578;11.012;2023-06-22T04:46:24;990.333;;;19.48;80.7
13058;BME280;6595;49.578;11.012;2023-06-22T04:48:23;990.302;;;19.49;80.7
13058;BME280;6595;49.578;11.012;2023-06-22T04:50:23;990.128;;;19.52;81.2
13058;BME280;6595;49.578;11.012;2023-06-22T04:52:24;990.146;;;19.56;81.5
13058;BME280;6595;49.578;11.012;2023-06-22T04:54:23;990.139;;;19.59;81.3
13058;BME280;6595;49.578;11.012;2023-06-22T04:56:23;990.126;;;19.63;80.9
13058;BME280;6595;49.578;11.012;2023-06-22T04:58:24;990.229;;;19.64;80.4
13058;BME280;6595;49.578;11.012;2023-06-22T05:00:23;990.186;;;19.62;80.1
13058;BME280;6595;49.578;11.012;2023-06-22T05:02:23;990.200;;;19.64;80.2
13058;BME280;6595;49.578;11.012;2023-06-22T05:04:23;990.115;;;19.72;80.3
13058;BME280;6595;49.578;11.012;2023-06-22T05:06:24;990.065;;;19.84;80.2
13058;BME280;6595;49.578;11.012;2023-06-22T05:08:23;990.182;;;19.96;79.8
13058;BME280;6595;49.578;11.012;2023-06-22T05:10:23;990.235;;;20.06;79.6
13058;BME280;6595;49.578;11.012;2023-06-22T05:12:24;990.195;;;20.08;79.1
13058;BME280;6595;49.578;11.012;2023-06-22T05:14:23;990.236;;;20.11;78.9
13058;BME280;6595;49.578;11.012;2023-06-22T05:16:24;990.169;;;20.18;79.1
13058;BME280;6595;49.578;11.012;2023-06-22T05:18:24;990.135;;;20.27;78.9
13058;BME280;6595;49.578;11.012;2023-06-22T05:20:23;990.135;;;20.34;78.7
13058;BME280;6595;49.578;11.012;2023-06-22T05:22:23;990.187;;;20.41;78.5
13058;BME280;6595;49.578;11.012;2023-06-22T05:24:24;990.062;;;20.49;78.1
13058;BME280;6595;49.578;11.012;2023-06-22T05:26:24;990.090;;;20.54;78.3
13058;BME280;6595;49.578;11.012;2023-06-22T05:28:24;990.084;;;20.64;77.7
13058;BME280;6595;49.578;11.012;2023-06-22T05:30:23;990.005;;;20.74;77.7
13058;BME280;6595;49.578;11.012;2023-06-22T05:32:23;990.054;;;20.81;77.2
13058;BME280;6595;49.578;11.012;2023-06-22T05:34:24;989.998;;;20.88;77.1
13058;BME280;6595;49.578;11.012;2023-06-22T05:36:23;990.051;;;21.03;76.7
13058;BME280;6595;49.578;11.012;2023-06-22T05:38:23;989.994;;;21.15;76.6
13058;BME280;6595;49.578;11.012;2023-06-22T05:40:24;990.162;;;21.19;77.1
13058;BME280;6595;49.578;11.012;2023-06-22T05:42:23;990.189;;;21.35;75.8
13058;BME280;6595;49.578;11.012;2023-06-22T05:44:24;990.101;;;21.45;75.7
13058;BME280;6595;49.578;11.012;2023-06-22T05:46:24;990.124;;;21.46;75.8
13058;BME280;6595;49.578;11.012;2023-06-22T05:48:24;990.175;;;21.53;75.6
13058;BME280;6595;49.578;11.012;2023-06-22T05:50:24;990.222;;;21.54;75.9
13058;BME280;6595;49.578;11.012;2023-06-22T05:52:23;990.191;;;21.57;75.5
13058;BME280;6595;49.578;11.012;2023-06-22T05:54:23;990.130;;;21.56;75.4
13058;BME280;6595;49.578;11.012;2023-06-22T05:56:24;990.235;;;21.63;75.4
13058;BME280;6595;49.578;11.012;2023-06-22T05:58:23;990.219;;;21.63;75.1
13058;BME280;6595;49.578;11.012;2023-06-22T06:00:24;990.203;;;21.66;75.5
13058;BME280;6595;49.578;11.012;2023-06-22T06:02:23;990.157;;;21.68;75.3
13058;BME280;6595;49.578;11.012;2023-06-22T06:04:23;990.139;;;21.73;75.4
13058;BME280;6595;49.578;11.012;2023-06-22T06:06:24;990.075;;;21.76;75.4
13058;BME280;6595;49.578;11.012;2023-06-22T06:08:24;990.097;;;21.81;75.5
13058;BME280;6595;49.578;11.012;2023-06-22T06:10:23;990.149;;;21.91;75.0
13058;BME280;6595;49.578;11.012;2023-06-22T06:12:24;990.072;;;22.01;74.8
13058;BME280;6595;49.578;11.012;2023-06-22T06:14:23;990.115;;;22.22;74.6
13058;BME280;6595;49.578;11.012;2023-06-22T06:16:23;990.130;;;22.30;73.5
13058;BME280;6595;49.578;11.012;2023-06-22T06:18:24;990.150;;;22.37;73.4
13058;BME280;6595;49.578;11.012;2023-06-22T06:20:25;990.112;;;22.48;73.3
13058;BME280;6595;49.578;11.012;2023-06-22T06:22:24;990.104;;;22.58;72.9
13058;BME280;6595;49.578;11.012;2023-06-22T06:24:23;990.109;;;22.74;72.7
13058;BME280;6595;49.578;11.012;2023-06-22T06:26:23;990.055;;;22.79;72.4
13058;BME280;6595;49.578;11.012;2023-06-22T06:28:24;990.242;;;22.88;71.7
13058;BME280;6595;49.578;11.012;2023-06-22T06:30:23;990.187;;;22.95;71.4
13058;BME280;6595;49.578;11.012;2023-06-22T06:32:23;990.160;;;22.98;71.6
13058;BME280;6595;49.578;11.012;2023-06-22T06:34:24;990.079;;;23.05;70.8
13058;BME280;6595;49.578;11.012;2023-06-22T06:36:23;989.942;;;23.10;70.5
13058;BME280;6595;49.578;11.012;2023-06-22T06:38:23;989.969;;;23.19;70.4
13058;BME280;6595;49.578;11.012;2023-06-22T06:40:24;989.910;;;23.25;69.8
13058;BME280;6595;49.578;11.012;2023-06-22T06:42:23;989.852;;;23.29;69.4
13058;BME280;6595;49.578;11.012;2023-06-22T06:44:24;989.879;;;23.43;69.5
13058;BME280;6595;49.578;11.012;2023-06-22T06:46:23;989.984;;;23.52;69.0
13058;BME280;6595;49.578;11.012;2023-06-22T06:48:23;989.922;;;23.50;68.8
13058;BME280;6595;49.578;11.012;2023-06-22T06:50:24;989.940;;;23.61;68.7
13058;BME280;6595;49.578;11.012;2023-06-22T06:52:23;990.002;;;23.70;68.7
13058;BME280;6595;49.578;11.012;2023-06-22T06:54:24;989.923;;;23.76;68.3
13058;BME280;6595;49.578;11.012;2023-06-22T06:56:23;989.938;;;23.83;67.9
13058;BME280;6595;49.578;11.012;2023-06-22T06:58:23;989.943;;;23.97;68.1
13058;BME280;6595;49.578;11.012;2023-06-22T07:00:24;989.861;;;24.03;67.8
13058;BME280;6595;49.578;11.012;2023-06-22T07:02:24;989.822;;;24.10;67.8
13058;BME280;6595;49.578;11.012;2023-06-22T07:04:24;989.816;;;24.27;67.2
13058;BME280;6595;49.578;11.012;2023-06-22T07:06:23;989.746;;;24.34;66.6
13058;BME280;6595;49.578;11.012;2023-06-22T07:08:24;989.837;;;24.38;66.7
13058;BME280;6595;49.578;11.012;2023-06-22T07:10:23;989.753;;;24.44;66.1
13058;BME280;6595;49.578;11.012;2023-06-22T07:12:23;989.752;;;24.55;65.8
13058;BME280;6595;49.578;11.012;2023-06-22T07:14:24;989.802;;;24.62;65.6
13058;BME280;6595;49.578;11.012;2023-06-22T07:16:23;989.715;;;24.75;64.0
13058;BME280;6595;49.578;11.012;2023-06-22T07:18:23;989.718;;;24.72;63.8
13058;BME280;6595;49.578;11.012;2023-06-22T07:20:24;989.708;;;24.86;63.4
13058;BME280;6595;49.578;11.012;2023-06-22T07:22:23;989.762;;;24.85;63.5
13058;BME280;6595;49.578;11.012;2023-06-22T07:24:24;989.679;;;25.03;63.2
13058;BME280;6595;49.578;11.012;2023-06-22T07:26:23;989.749;;;25.13;62.8
13058;BME280;6595;49.578;11.012;2023-06-22T07:28:23;989.749;;;25.13;62.8
13058;BME280;6595;49.578;11.012;2023-06-22T07:30:24;989.750;;;25.23;61.6
13058;BME280;6595;49.578;11.012;2023-06-22T07:32:23;989.783;;;25.29;61.3
13058;BME280;6595;49.578;11.012;2023-06-22T07:34:23;989.796;;;25.44;61.3
13058;BME280;6595;49.578;11.012;2023-06-22T07:36:24;989.783;;;25.52;60.7
13058;BME280;6595;49.578;11.012;2023-06-22T07:38:24;989.756;;;25.59;60.8
13058;BME280;6595;49.578;11.012;2023-06-22T07:40:23;989.747;;;25.73;58.5
13058;BME280;6595;49.578;11.012;2023-06-22T07:42:24;989.747;;;25.73;58.5
13058;BME280;6595;49.578;11.012;2023-06-22T07:44:23;989.700;;;25.84;58.5
13058;BME280;6595;49.578;11.012;2023-06-22T07:46:23;989.765;;;25.86;58.7
13058;BME280;6595;49.578;11.012;2023-06-22T07:48:24;989.654;;;25.87;58.6
13058;BME280;6595;49.578;11.012;2023-06-22T07:50:23;989.666;;;25.96;58.3
13058;BME280;6595;49.578;11.012;2023-06-22T07:52:24;989.675;;;26.09;57.7
13058;BME280;6595;49.578;11.012;2023-06-22T07:54:23;989.691;;;26.09;57.2
13058;BME280;6595;49.578;11.012;2023-06-22T07:56:23;989.691;;;26.09;57.2
13058;BME280;6595;49.578;11.012;2023-06-22T07:58:24;989.750;;;26.13;57.1
13058;BME280;6595;49.578;11.012;2023-06-22T08:00:24;989.781;;;26.21;57.0
13058;BME280;6595;49.578;11.012;2023-06-22T08:02:23;989.726;;;26.26;56.9
13058;BME280;6595;49.578;11.012;2023-06-22T08:04:23;989.648;;;26.34;56.8
13058;BME280;6595;49.578;11.012;2023-06-22T08:06:24;989.753;;;26.38;56.4
13058;BME280;6595;49.578;11.012;2023-06-22T08:08:24;989.731;;;26.54;55.6
13058;BME280;6595;49.578;11.012;2023-06-22T08:10:24;989.732;;;26.58;55.7
13058;BME280;6595;49.578;11.012;2023-06-22T08:12:24;989.784;;;26.55;55.6
13058;BME280;6595;49.578;11.012;2023-06-22T08:14:23;989.788;;;26.58;55.9
13058;BME280;6595;49.578;11.012;2023-06-22T08:16:24;989.829;;;26.62;56.3
13058;BME280;6595;49.578;11.012;2023-06-22T08:18:23;989.818;;;26.74;55.7
13058;BME280;6595;49.578;11.012;2023-06-22T08:20:23;989.813;;;26.78;55.6
13058;BME280;6595;49.578;11.012;2023-06-22T08:22:25;989.813;;;26.86;55.1
13058;BME280;6595;49.578;11.012;2023-06-22T08:24:23;989.817;;;26.98;54.8
13058;BME280;6595;49.578;11.012;2023-06-22T08:26:23;989.736;;;27.05;54.8
13058;BME280;6595;49.578;11.012;2023-06-22T08:28:24;989.753;;;27.09;54.3
13058;BME280;6595;49.578;11.012;2023-06-22T08:30:23;989.755;;;27.23;54.5
13058;BME280;6595;49.578;11.012;2023-06-22T08:32:23;989.742;;;27.30;54.0
13058;BME280;6595;49.578;11.012;2023-06-22T08:34:24;989.726;;;27.28;54.1
13058;BME280;6595;49.578;11.012;2023-06-22T08:36:23;989.708;;;27.39;54.0
13058;BME280;6595;49.578;11.012;2023-06-22T08:38:23;989.672;;;27.42;54.4
13058;BME280;6595;49.578;11.012;2023-06-22T08:40:24;989.749;;;27.50;54.4
13058;BME280;6595;49.578;11.012;2023-06-22T08:42:23;989.726;;;27.56;54.5
13058;BME280;6595;49.578;11.012;2023-06-22T08:44:25;989.797;;;27.59;53.5
13058;BME280;6595;49.578;11.012;2023-06-22T08:46:24;989.849;;;27.49;52.4
13058;BME280;6595;49.578;11.012;2023-06-22T08:48:24;989.808;;;27.50;52.6
13058;BME280;6595;49.578;11.012;2023-06-22T08:50:23;989.747;;;27.54;53.5
13058;BME280;6595;49.578;11.012;2023-06-22T08:52:23;989.688;;;27.64;53.0
13058;BME280;6595;49.578;11.012;2023-06-22T08:54:24;989.695;;;27.84;51.4
13058;BME280;6595;49.578;11.012;2023-06-22T08:56:23;989.677;;;27.87;51.9
13058;BME280;6595;49.578;11.012;2023-06-22T08:58:24;989.605;;;27.94;51.2
13058;BME280;6595;49.578;11.012;2023-06-22T09:00:24;989.582;;;27.86;51.9
13058;BME280;6595;49.578;11.012;2023-06-22T09:02:23;989.634;;;28.01;51.5
13058;BME280;6595;49.578;11.012;2023-06-22T09:04:24;989.652;;;28.08;52.0
13058;BME280;6595;49.578;11.012;2023-06-22T09:06:23;989.573;;;28.27;50.5
13058;BME280;6595;49.578;11.012;2023-06-22T09:08:24;989.483;;;28.30;50.8
13058;BME280;6595;49.578;11.012;2023-06-22T09:10:24;989.441;;;28.32;50.3
13058;BME280;6595;49.578;11.012;2023-06-22T09:12:23;989.454;;;28.47;50.6
13058;BME280;6595;49.578;11.012;2023-06-22T09:14:24;989.409;;;28.59;50.3
13058;BME280;6595;49.578;11.012;2023-06-22T09:16:23;989.333;;;28.61;49.8
13058;BME280;6595;49.578;11.012;2023-06-22T09:18:23;989.300;;;28.68;49.9
13058;BME280;6595;49.578;11.012;2023-06-22T09:20:24;989.281;;;28.71;50.1
13058;BME280;6595;49.578;11.012;2023-06-22T09:22:23;989.324;;;28.89;49.2
13058;BME280;6595;49.578;11.012;2023-06-22T09:24:23;989.279;;;29.02;48.6
13058;BME280;6595;49.578;11.012;2023-06-22T09:26:24;989.306;;;29.16;48.1
13058;BME280;6595;49.578;11.012;2023-06-22T09:28:23;989.235;;;29.25;48.4
13058;BME280;6595;49.578;11.012;2023-06-22T09:30:23;989.191;;;29.33;48.1
13058;BME280;6595;49.578;11.012;2023-06-22T09:32:24;989.223;;;29.49;47.7
13058;BME280;6595;49.578;11.012;2023-06-22T09:34:23;989.223;;;29.49;47.7
13058;BME280;6595;49.578;11.012;2023-06-22T09:36:24;989.156;;;29.60;47.5
13058;BME280;6595;49.578;11.012;2023-06-22T09:38:24;989.139;;;29.59;47.2
13058;BME280;6595;49.578;11.012;2023-06-22T09:40:23;989.139;;;29.59;47.2
13058;BME280;6595;49.578;11.012;2023-06-22T09:42:24;989.063;;;29.61;47.3
13058;BME280;6595;49.578;11.012;2023-06-22T09:44:23;989.063;;;29.61;47.3
13058;BME280;6595;49.578;11.012;2023-06-22T09:46:23;989.016;;;29.79;46.5
13058;BME280;6595;49.578;11.012;2023-06-22T09:48:24;989.064;;;29.77;46.5
13058;BME280;6595;49.578;11.012;2023-06-22T09:50:23;989.071;;;29.74;46.8
13058;BME280;6595;49.578;11.012;2023-06-22T09:52:23;989.065;;;29.77;46.8
13058;BME280;6595;49.578;11.012;2023-06-22T09:54:24;988.987;;;30.04;46.4
13058;BME280;6595;49.578;11.012;2023-06-22T09:56:23;988.936;;;30.10;46.2
13058;BME280;6595;49.578;11.012;2023-06-22T09:58:23;988.950;;;30.18;45.8
13058;BME280;6595;49.578;11.012;2023-06-22T10:00:24;988.987;;;30.23;45.5
13058;BME280;6595;49.578;11.012;2023-06-22T10:02:23;988.949;;;30.24;44.8
13058;BME280;6595;49.578;11.012;2023-06-22T10:04:23;988.870;;;30.31;45.2
13058;BME280;6595;49.578;11.012;2023-06-22T10:06:23;988.890;;;30.24;45.2
13058;BME280;6595;49.578;11.012;2023-06-22T10:08:24;988.822;;;30.32;45.1
13058;BME280;6595;49.578;11.012;2023-06-22T10:10:24;988.893;;;30.39;44.2
13058;BME280;6595;49.578;11.012;2023-06-22T10:12:24;988.985;;;30.47;45.0
13058;BME280;6595;49.578;11.012;2023-06-22T10:14:23;989.133;;;30.61;44.9
13058;BME280;6595;49.578;11.012;2023-06-22T10:16:24;989.138;;;30.78;44.4
13058;BME280;6595;49.578;11.012;2023-06-22T10:18:23;989.048;;;30.75;43.5
13058;BME280;6595;49.578;11.012;2023-06-22T10:20:24;988.973;;;30.68;44.2
13058;BME280;6595;49.578;11.012;2023-06-22T10:22:23;988.898;;;30.58;45.0
13058;BME280;6595;49.578;11.012;2023-06-22T10:24:24;989.002;;;30.65;44.9
13058;BME280;6595;49.578;11.012;2023-06-22T10:26:24;988.972;;;30.78;44.6
13058;BME280;6595;49.578;11.012;2023-06-22T10:28:23;989.005;;;30.86;44.1
13058;BME280;6595;49.578;11.012;2023-06-22T10:30:24;989.032;;;31.06;43.6
13058;BME280;6595;49.578;11.012;2023-06-22T10:32:23;989.123;;;31.19;43.2
13058;BME280;6595;49.578;11.012;2023-06-22T10:34:23;989.107;;;31.34;42.5
13058;BME280;6595;49.578;11.012;2023-06-22T10:36:24;989.184;;;31.42;42.7
13058;BME280;6595;49.578;11.012;2023-06-22T10:38:23;989.139;;;31.60;42.3
13058;BME280;6595;49.578;11.012;2023-06-22T10:40:23;989.044;;;31.64;42.2
13058;BME280;6595;49.578;11.012;2023-06-22T10:42:24;989.172;;;31.66;41.7
13058;BME280;6595;49.578;11.012;2023-06-22T10:44:23;989.032;;;31.60;42.0
13058;BME280;6595;49.578;11.012;2023-06-22T10:46:24;989.047;;;31.70;41.7
13058;BME280;6595;49.578;11.012;2023-06-22T10:48:24;988.917;;;31.66;41.9
13058;BME280;6595;49.578;11.012;2023-06-22T10:50:24;988.934;;;31.76;41.5
13058;BME280;6595;49.578;11.012;2023-06-22T10:52:23;988.927;;;31.90;41.6